Time;durP1;ratioP1;P1;durP2;ratioP2;P2;SDS_P1;SDS_P2;PMS_P1;PMS_P2;Temp;Humidity;BMP_temperature;BMP_pressure;BME280_temperature;BME280_humidity;BME280_pressure;Samples;Min_cycle;Max_cycle;Signal;HPM_P1;HPM_P2
2023/01/20 00:01:25;;;;;;;7.32;4.18;;;19.50;57.10;;;;;;4973701;28;88059;-83
2023/01/20 00:03:52;;;;;;;4.93;3.63;;;19.50;57.20;;;;;;4987380;28;89860;-83
2023/01/20 00:06:18;;;;;;;8.38;4.30;;;19.50;57.20;;;;;;4991736;28;88696;-83
2023/01/20 00:08:44;;;;;;;7.45;3.90;;;19.50;57.30;;;;;;4995512;28;88190;-83
2023/01/20 00:11:11;;;;;;;6.32;3.80;;;19.40;57.20;;;;;;4987849;28;87316;-83
2023/01/20 00:13:38;;;;;;;6.40;3.92;;;19.40;57.40;;;;;;4986887;28;86900;-84
2023/01/20 00:16:06;;;;;;;5.72;3.53;;;19.40;57.20;;;;;;4995583;28;88706;-83
2023/01/20 00:18:33;;;;;;;6.28;3.92;;;19.40;57.20;;;;;;4995284;28;88443;-83
2023/01/20 00:21:03;;;;;;;7.28;3.95;;;19.40;57.30;;;;;;4994276;28;87225;-84
2023/01/20 00:23:29;;;;;;;6.03;3.88;;;19.40;57.20;;;;;;4992271;28;87210;-83
2023/01/20 00:25:54;;;;;;;6.65;3.60;;;19.30;57.30;;;;;;4983979;28;89778;-83
2023/01/20 00:28:20;;;;;;;7.10;3.95;;;19.30;57.30;;;;;;4990575;28;89214;-83
2023/01/20 00:30:45;;;;;;;5.53;3.65;;;19.30;57.30;;;;;;4984229;28;87131;-83
2023/01/20 00:33:11;;;;;;;6.43;3.90;;;19.30;57.30;;;;;;4991599;28;87133;-83
2023/01/20 00:35:37;;;;;;;6.60;4.28;;;19.30;57.30;;;;;;4988133;28;88840;-83
2023/01/20 00:38:03;;;;;;;4.90;3.30;;;19.30;57.20;;;;;;4998873;28;89640;-84
2023/01/20 00:40:28;;;;;;;5.40;3.60;;;19.30;57.30;;;;;;4995316;28;87036;-83
2023/01/20 00:42:54;;;;;;;6.78;3.70;;;19.30;57.30;;;;;;4992308;28;88145;-82
2023/01/20 00:45:20;;;;;;;5.22;3.22;;;19.30;57.30;;;;;;4995384;28;87113;-83
2023/01/20 00:47:45;;;;;;;7.60;3.80;;;19.20;57.30;;;;;;4996586;28;87717;-83
2023/01/20 00:50:11;;;;;;;5.90;3.72;;;19.20;57.20;;;;;;4996569;28;88072;-84
2023/01/20 00:52:36;;;;;;;7.13;4.22;;;19.20;57.20;;;;;;4994149;28;87106;-83
2023/01/20 00:55:02;;;;;;;5.95;3.75;;;19.20;57.30;;;;;;4993043;28;87919;-84
2023/01/20 00:57:28;;;;;;;5.47;3.55;;;19.20;57.30;;;;;;4989963;28;87846;-83
2023/01/20 00:59:53;;;;;;;4.93;3.30;;;19.20;57.30;;;;;;4989312;28;87301;-83
2023/01/20 01:02:19;;;;;;;6.13;3.83;;;19.20;57.40;;;;;;4987247;28;89480;-83
2023/01/20 01:04:49;;;;;;;5.43;3.85;;;19.10;57.30;;;;;;4986464;28;87602;-83
2023/01/20 01:07:15;;;;;;;5.97;4.03;;;19.10;57.40;;;;;;4989435;28;88256;-83
2023/01/20 01:09:40;;;;;;;6.63;3.65;;;19.10;57.40;;;;;;4994109;28;86962;-83
2023/01/20 01:12:06;;;;;;;5.72;3.47;;;19.10;57.40;;;;;;4991821;28;87077;-83
2023/01/20 01:14:32;;;;;;;6.50;3.75;;;19.10;57.20;;;;;;4988463;28;88419;-83
2023/01/20 01:16:57;;;;;;;6.38;3.67;;;19.10;57.30;;;;;;4990390;28;88782;-83
2023/01/20 01:19:23;;;;;;;5.55;3.58;;;19.10;57.30;;;;;;4990292;28;87043;-83
2023/01/20 01:21:49;;;;;;;6.15;3.75;;;19.00;57.20;;;;;;4986731;28;87043;-83
2023/01/20 01:24:14;;;;;;;5.05;3.38;;;19.10;57.40;;;;;;4986036;28;90675;-83
2023/01/20 01:26:40;;;;;;;4.93;3.20;;;19.00;57.30;;;;;;4995621;28;87805;-83
2023/01/20 01:29:06;;;;;;;4.68;3.35;;;19.00;57.30;;;;;;4989476;28;86791;-82
2023/01/20 01:31:31;;;;;;;5.03;3.42;;;19.00;57.30;;;;;;4985650;28;87142;-83
2023/01/20 01:33:57;;;;;;;5.35;3.53;;;19.00;57.40;;;;;;4983263;28;88099;-83
2023/01/20 01:36:23;;;;;;;6.05;4.22;;;19.00;57.40;;;;;;4985464;28;88342;-82
2023/01/20 01:38:48;;;;;;;5.55;3.67;;;19.00;57.30;;;;;;4987120;28;88221;-83
2023/01/20 01:41:19;;;;;;;6.10;3.65;;;19.00;57.40;;;;;;4982709;28;87464;-83
2023/01/20 01:44:08;;;;;;;4.57;3.50;;;18.90;57.20;;;;;;4992618;28;86927;-84
2023/01/20 01:46:34;;;;;;;4.90;3.05;;;19.00;57.20;;;;;;4983935;28;92381;-83
2023/01/20 01:49:03;;;;;;;3.67;3.10;;;19.00;57.30;;;;;;4989033;28;86911;-82
2023/01/20 01:51:36;;;;;;;5.10;3.50;;;18.90;57.20;;;;;;4986054;28;87176;-83
2023/01/20 01:54:11;;;;;;;4.50;3.33;;;18.90;57.30;;;;;;4983558;28;87683;-83
2023/01/20 01:56:37;;;;;;;5.22;3.50;;;18.90;57.30;;;;;;4982267;28;87856;-83
2023/01/20 01:59:04;;;;;;;5.47;3.40;;;18.90;57.30;;;;;;4984195;28;87410;-83
2023/01/20 02:01:32;;;;;;;4.70;3.33;;;18.90;57.30;;;;;;4988818;28;89465;-83
2023/01/20 02:04:22;;;;;;;5.07;3.65;;;18.90;57.30;;;;;;4982606;28;88316;-83
2023/01/20 02:06:59;;;;;;;5.63;3.50;;;18.90;57.30;;;;;;4990839;28;87181;-83
2023/01/20 02:09:26;;;;;;;4.55;3.08;;;18.80;57.30;;;;;;4992898;28;87115;-83
2023/01/20 02:11:59;;;;;;;5.97;3.83;;;18.80;57.40;;;;;;4991638;28;87370;-83
2023/01/20 02:14:33;;;;;;;4.93;3.47;;;18.80;57.50;;;;;;4983937;28;87301;-83
2023/01/20 02:17:28;;;;;;;5.40;3.20;;;18.80;57.40;;;;;;4992276;28;87517;-83
2023/01/20 02:20:33;;;;;;;5.32;3.55;;;18.80;57.50;;;;;;4985107;28;87554;-83
2023/01/20 02:23:21;;;;;;;4.90;3.28;;;18.80;57.40;;;;;;4996741;28;91778;-83
2023/01/20 02:26:05;;;;;;;4.70;3.50;;;18.80;57.40;;;;;;4895068;28;92047;-83
2023/01/20 02:28:50;;;;;;;5.47;3.70;;;18.70;57.40;;;;;;4894120;28;92452;-83
2023/01/20 02:31:52;;;;;;;5.82;3.80;;;18.70;57.40;;;;;;4891569;28;87886;-83
2023/01/20 02:34:57;;;;;;;5.35;3.47;;;18.70;57.50;;;;;;4888407;28;87404;-83
2023/01/20 02:37:31;;;;;;;5.65;3.38;;;18.70;57.60;;;;;;4893379;28;87376;-82
2023/01/20 02:40:19;;;;;;;4.55;3.05;;;18.60;57.40;;;;;;4895503;28;89811;-83
2023/01/20 02:43:01;;;;;;;4.15;3.13;;;18.70;57.60;;;;;;4890359;28;87207;-83
2023/01/20 02:45:39;;;;;;;4.18;3.05;;;18.60;57.60;;;;;;4894040;28;88302;-83
2023/01/20 02:48:17;;;;;;;4.38;3.35;;;18.60;57.40;;;;;;4894236;28;88445;-83
2023/01/20 02:50:54;;;;;;;5.57;3.17;;;18.60;57.40;;;;;;4888169;28;86534;-83
2023/01/20 02:53:22;;;;;;;5.55;3.78;;;18.60;57.40;;;;;;4885947;28;87670;-83
2023/01/20 02:55:50;;;;;;;4.70;3.35;;;18.60;57.40;;;;;;4890546;28;87384;-83
2023/01/20 02:58:22;;;;;;;6.22;3.65;;;18.60;57.50;;;;;;4878505;28;89626;-83
2023/01/20 03:00:56;;;;;;;4.60;3.33;;;18.60;57.50;;;;;;4879594;28;92713;-82
2023/01/20 03:03:28;;;;;;;6.45;4.03;;;18.60;57.40;;;;;;4960298;28;87124;-83
2023/01/20 03:05:57;;;;;;;4.15;3.10;;;18.60;57.40;;;;;;4986271;28;87369;-83
2023/01/20 03:08:30;;;;;;;4.80;3.30;;;18.60;57.50;;;;;;4991592;28;88537;-83
2023/01/20 03:11:01;;;;;;;4.50;3.30;;;18.50;57.40;;;;;;4992400;28;88160;-82
2023/01/20 03:13:54;;;;;;;5.32;3.42;;;18.60;57.50;;;;;;4984317;28;86925;-83
2023/01/20 03:16:23;;;;;;;4.32;3.08;;;18.60;57.50;;;;;;4977241;28;87459;-83
2023/01/20 03:18:49;;;;;;;3.67;2.80;;;18.60;57.40;;;;;;4975411;28;88293;-83
2023/01/20 03:21:15;;;;;;;6.20;3.58;;;18.60;57.50;;;;;;4976687;28;88536;-83
2023/01/20 03:23:47;;;;;;;4.05;2.83;;;18.50;57.30;;;;;;4976160;28;88326;-82
2023/01/20 03:26:15;;;;;;;4.93;3.50;;;18.60;57.40;;;;;;4968507;28;87527;-83
2023/01/20 03:28:45;;;;;;;4.47;3.08;;;18.50;57.30;;;;;;4977510;28;88422;-83
2023/01/20 03:31:24;;;;;;;6.78;3.38;;;18.60;57.50;;;;;;4967063;28;87951;-85
2023/01/20 03:33:52;;;;;;;;;;;18.60;57.30;;;;;;4979743;28;87189;-83
2023/01/20 03:36:19;;;;;;;4.95;3.35;;;18.70;57.00;;;;;;4980022;28;86920;-84
2023/01/20 03:38:45;;;;;;;6.45;3.80;;;18.70;57.00;;;;;;4979752;28;87872;-84
2023/01/20 03:41:44;;;;;;;4.10;3.50;;;18.80;56.80;;;;;;4980710;28;88310;-84
2023/01/20 03:44:40;;;;;;;5.20;3.20;;;18.90;56.90;;;;;;4981387;28;87441;-83
2023/01/20 03:47:23;;;;;;;4.88;3.30;;;19.10;56.80;;;;;;4974245;28;87561;-85
2023/01/20 03:50:12;;;;;;;5.50;3.40;;;19.30;56.40;;;;;;4979563;28;89551;-86
2023/01/20 03:52:54;;;;;;;4.03;3.15;;;19.50;56.50;;;;;;4906879;28;92595;-84
2023/01/20 03:55:26;;;;;;;4.93;3.17;;;19.70;56.30;;;;;;4926110;28;87289;-83
2023/01/20 03:58:05;;;;;;;4.60;3.38;;;19.90;55.80;;;;;;4929059;28;87231;-83
2023/01/20 04:00:34;;;;;;;4.65;3.03;;;20.00;55.50;;;;;;4941390;28;88734;-83
2023/01/20 04:03:03;;;;;;;4.07;3.15;;;20.10;55.40;;;;;;4940858;28;88176;-86
2023/01/20 04:05:29;;;;;;;5.68;3.35;;;20.20;55.10;;;;;;4934020;28;87622;-85
2023/01/20 04:07:58;;;;;;;4.07;3.20;;;20.30;55.00;;;;;;4935409;28;86218;-83
2023/01/20 04:10:28;;;;;;;4.10;3.10;;;20.40;54.90;;;;;;4928449;28;89056;-84
2023/01/20 04:12:54;;;;;;;3.70;2.92;;;20.50;54.60;;;;;;4935108;28;87704;-84
2023/01/20 04:15:22;;;;;;;3.63;2.95;;;20.50;54.70;;;;;;4932288;28;89473;-83
2023/01/20 04:17:47;;;;;;;5.00;3.00;;;20.50;54.50;;;;;;4935275;28;87953;-83
2023/01/20 04:20:15;;;;;;;4.70;2.70;;;20.50;54.60;;;;;;4938319;28;88303;-83
2023/01/20 04:22:49;;;;;;;3.53;2.78;;;20.60;54.20;;;;;;4924966;28;88039;-84
2023/01/20 04:25:28;;;;;;;4.85;3.13;;;20.60;54.10;;;;;;4911680;28;86810;-83
2023/01/20 04:27:54;;;;;;;3.97;2.80;;;20.50;54.30;;;;;;4932065;28;87421;-85
2023/01/20 04:30:19;;;;;;;5.75;3.13;;;20.50;54.30;;;;;;4979794;28;88454;-85
2023/01/20 04:36:19;;;;;;;4.68;3.28;;;20.30;54.70;;;;;;4983488;28;86927;-86
2023/01/20 04:38:47;;;;;;;3.75;3.33;;;20.20;54.80;;;;;;4982784;28;87210;-86
2023/01/20 04:41:13;;;;;;;4.10;3.00;;;20.20;55.00;;;;;;4992342;28;89071;-86
2023/01/20 04:43:43;;;;;;;5.18;2.80;;;20.20;55.20;;;;;;4991337;28;89248;-84
2023/01/20 04:46:10;;;;;;;4.30;2.90;;;20.20;55.20;;;;;;4993957;28;87370;-84
2023/01/20 04:48:36;;;;;;;6.93;3.13;;;20.20;54.90;;;;;;4986406;28;87346;-84
2023/01/20 04:51:05;;;;;;;7.28;3.00;;;20.30;54.90;;;;;;5000922;28;88505;-85
2023/01/20 04:53:31;;;;;;;4.35;3.10;;;20.40;54.70;;;;;;4983342;28;88164;-84
2023/01/20 04:55:57;;;;;;;3.58;3.05;;;20.40;54.70;;;;;;4996726;28;86985;-84
2023/01/20 04:58:33;;;;;;;4.10;3.13;;;20.50;54.00;;;;;;4978808;28;89290;-84
2023/01/20 05:01:01;;;;;;;3.78;2.83;;;20.50;54.60;;;;;;4983317;28;87321;-84
2023/01/20 05:03:27;;;;;;;4.05;2.50;;;20.40;54.70;;;;;;4986939;28;87812;-84
2023/01/20 05:05:53;;;;;;;3.50;2.72;;;20.40;54.80;;;;;;4985998;28;88035;-84
2023/01/20 05:08:19;;;;;;;4.07;3.00;;;20.30;54.80;;;;;;4989074;28;87061;-83
2023/01/20 05:10:45;;;;;;;6.38;2.90;;;20.20;54.80;;;;;;4984663;28;88796;-82
2023/01/20 05:13:10;;;;;;;7.00;2.75;;;20.20;55.00;;;;;;4993209;28;88269;-84
2023/01/20 05:15:36;;;;;;;3.22;2.53;;;20.20;55.70;;;;;;4987405;28;87269;-83
2023/01/20 05:18:04;;;;;;;6.82;2.92;;;20.20;55.10;;;;;;4983972;28;87082;-84
2023/01/20 05:20:29;;;;;;;5.25;2.95;;;20.20;55.10;;;;;;4986732;28;88636;-84
2023/01/20 05:22:55;;;;;;;5.60;2.92;;;20.20;55.10;;;;;;4991499;28;87621;-83
2023/01/20 05:25:20;;;;;;;4.15;2.85;;;20.30;54.90;;;;;;4988419;28;87463;-84
2023/01/20 05:27:46;;;;;;;2.90;2.50;;;20.40;54.90;;;;;;4993565;28;86998;-84
2023/01/20 05:30:12;;;;;;;3.80;2.97;;;20.40;54.80;;;;;;4988965;28;88685;-83
2023/01/20 05:32:38;;;;;;;3.15;2.42;;;20.50;54.70;;;;;;4995161;28;88824;-84
2023/01/20 05:35:04;;;;;;;3.33;2.60;;;20.50;54.60;;;;;;4998531;28;86785;-84
2023/01/20 05:37:30;;;;;;;3.28;2.78;;;20.50;54.70;;;;;;4995813;28;91661;-84
2023/01/20 05:39:55;;;;;;;6.68;2.70;;;20.40;54.70;;;;;;4982350;28;88636;-83
2023/01/20 05:42:21;;;;;;;3.80;2.85;;;20.40;54.70;;;;;;4983878;28;88162;-84
2023/01/20 05:44:54;;;;;;;6.18;3.10;;;20.30;54.70;;;;;;4986541;28;87126;-83
2023/01/20 05:47:20;;;;;;;3.28;2.45;;;20.20;54.70;;;;;;4990612;28;87251;-84
2023/01/20 05:49:45;;;;;;;3.08;2.40;;;20.20;54.80;;;;;;4986916;28;89049;-84
2023/01/20 05:52:11;;;;;;;3.15;2.60;;;20.30;54.80;;;;;;4986673;28;87278;-84
2023/01/20 05:54:39;;;;;;;3.47;2.72;;;20.30;54.70;;;;;;4983457;28;87896;-83
2023/01/20 05:57:04;;;;;;;3.47;2.80;;;20.30;54.70;;;;;;4991902;28;94583;-83
2023/01/20 05:59:32;;;;;;;3.53;2.45;;;20.40;54.50;;;;;;4993967;28;88364;-84
2023/01/20 06:01:58;;;;;;;3.70;2.65;;;20.30;54.60;;;;;;4995303;28;88453;-84
2023/01/20 06:04:23;;;;;;;3.50;3.03;;;20.30;54.50;;;;;;4993398;28;86845;-84
2023/01/20 06:06:49;;;;;;;2.55;2.20;;;20.20;55.10;;;;;;4984301;28;87106;-84
2023/01/20 06:09:14;;;;;;;3.50;2.80;;;20.20;54.60;;;;;;4991113;28;88005;-85
2023/01/20 06:11:40;;;;;;;3.13;2.83;;;20.20;54.70;;;;;;4986890;28;87773;-84
2023/01/20 06:14:06;;;;;;;3.78;2.80;;;20.10;54.50;;;;;;4996036;28;87195;-84
2023/01/20 06:16:32;;;;;;;4.78;3.10;;;20.10;54.50;;;;;;4981666;28;87234;-84
2023/01/20 06:18:57;;;;;;;3.95;2.35;;;20.10;54.60;;;;;;4987848;28;88434;-85
2023/01/20 06:21:23;;;;;;;3.65;3.05;;;20.10;54.60;;;;;;4993616;28;89044;-85
2023/01/20 06:23:49;;;;;;;4.10;3.05;;;20.10;54.40;;;;;;4989197;28;87621;-85
2023/01/20 06:26:15;;;;;;;3.28;2.35;;;20.20;54.40;;;;;;4993276;28;87129;-85
2023/01/20 06:28:41;;;;;;;3.70;3.03;;;20.20;55.10;;;;;;4985478;28;88077;-84
2023/01/20 06:31:14;;;;;;;4.47;3.03;;;20.30;54.30;;;;;;4990424;28;88936;-84
2023/01/20 06:33:40;;;;;;;3.05;2.53;;;20.40;54.10;;;;;;4988300;28;87246;-85
2023/01/20 06:36:07;;;;;;;3.67;3.00;;;20.50;54.10;;;;;;4987833;28;86702;-87
2023/01/20 06:38:34;;;;;;;3.05;2.40;;;20.60;54.10;;;;;;4980853;28;88262;-83
2023/01/20 06:41:06;;;;;;;2.90;2.60;;;20.60;53.80;;;;;;4992166;28;87441;-84
2023/01/20 06:43:33;;;;;;;4.35;2.65;;;20.70;53.90;;;;;;4985509;28;88328;-85
2023/01/20 06:46:04;;;;;;;3.20;2.88;;;20.60;53.60;;;;;;4985652;28;87030;-83
2023/01/20 06:48:31;;;;;;;3.95;2.85;;;20.60;53.60;;;;;;4989790;28;88761;-84
2023/01/20 06:51:05;;;;;;;3.60;2.67;;;20.60;53.60;;;;;;4990292;28;88382;-86
2023/01/20 06:53:31;;;;;;;3.75;3.00;;;20.70;53.60;;;;;;4990745;28;87206;-84
2023/01/20 06:55:57;;;;;;;4.05;2.58;;;20.60;53.70;;;;;;4988829;28;86884;-85
2023/01/20 06:58:24;;;;;;;4.65;2.97;;;20.60;53.90;;;;;;4968460;28;89272;-85
2023/01/20 07:00:51;;;;;;;5.15;2.83;;;20.50;54.20;;;;;;4983221;28;88339;-85
2023/01/20 07:03:17;;;;;;;3.70;2.65;;;20.50;54.80;;;;;;4981168;28;87159;-85
2023/01/20 07:05:42;;;;;;;3.72;2.97;;;20.40;55.30;;;;;;4990692;28;86885;-85
2023/01/20 07:08:10;;;;;;;5.00;3.00;;;20.20;55.50;;;;;;4982125;28;89297;-84
2023/01/20 07:10:36;;;;;;;6.93;4.10;;;20.20;56.00;;;;;;4993240;28;89305;-85
2023/01/20 07:13:02;;;;;;;15.02;3.90;;;20.10;55.40;;;;;;4997777;28;87460;-86
2023/01/20 07:15:28;;;;;;;10.05;4.95;;;20.10;55.60;;;;;;4996438;28;87545;-88
2023/01/20 07:17:53;;;;;;;6.32;5.18;;;20.10;55.40;;;;;;4997025;28;88242;-85
2023/01/20 07:20:19;;;;;;;12.70;6.00;;;20.10;54.50;;;;;;5002615;28;87887;-86
2023/01/20 07:23:04;;;;;;;10.52;5.63;;;20.10;56.80;;;;;;4991798;28;87243;-88
2023/01/20 07:25:29;;;;;;;13.73;6.07;;;20.10;58.50;;;;;;4986949;28;95080;-86
2023/01/20 07:27:56;;;;;;;15.82;7.35;;;20.10;57.80;;;;;;4990015;28;87321;-86
2023/01/20 07:30:23;;;;;;;10.00;6.75;;;20.00;58.80;;;;;;4984627;28;87545;-86
2023/01/20 07:32:49;;;;;;;11.95;6.55;;;20.00;57.30;;;;;;4984049;28;87897;-85
2023/01/20 07:38:39;;;;;;;8.90;5.90;;;20.00;56.30;;;;;;4995456;28;87556;-84
2023/01/20 07:41:14;;;;;;;17.37;5.83;;;20.10;56.80;;;;;;4989991;28;87200;-86
2023/01/20 07:43:44;;;;;;;19.00;6.07;;;20.20;57.30;;;;;;5018118;28;87339;-86
2023/01/20 07:46:10;;;;;;;11.70;5.68;;;20.30;66.50;;;;;;4991441;28;89483;-86
2023/01/20 07:48:36;;;;;;;7.72;5.25;;;20.40;62.10;;;;;;4949819;28;87726;-86
2023/01/20 07:51:04;;;;;;;12.98;5.18;;;20.40;58.10;;;;;;4968790;28;91407;-87
2023/01/20 07:53:56;;;;;;;10.07;5.53;;;20.40;58.00;;;;;;5008896;28;86884;-85
2023/01/20 07:56:29;;;;;;;11.52;5.47;;;20.50;57.50;;;;;;4955369;28;86999;-85
2023/01/20 07:58:55;;;;;;;9.85;5.70;;;20.50;57.30;;;;;;4978102;28;89515;-85
2023/01/20 08:01:22;;;;;;;12.27;6.00;;;20.50;57.10;;;;;;4960054;28;91263;-86
2023/01/20 08:03:52;;;;;;;14.45;6.10;;;20.50;56.10;;;;;;4972973;28;87363;-83
2023/01/20 08:06:20;;;;;;;12.60;7.00;;;20.50;56.70;;;;;;4975954;28;87185;-84
2023/01/20 08:08:46;;;;;;;13.73;6.50;;;20.50;57.20;;;;;;4977451;28;87692;-84
2023/01/20 08:11:16;;;;;;;21.10;6.25;;;20.50;57.30;;;;;;4964889;28;88386;-84
2023/01/20 08:13:42;;;;;;;10.00;5.72;;;20.60;57.50;;;;;;4976847;28;87122;-83
2023/01/20 08:16:12;;;;;;;10.85;6.03;;;20.70;57.30;;;;;;4950898;28;90393;-83
2023/01/20 08:18:38;;;;;;;13.73;5.55;;;20.70;57.30;;;;;;4977165;28;88864;-85
2023/01/20 08:21:07;;;;;;;12.55;6.18;;;20.70;57.30;;;;;;4973811;28;87819;-84
2023/01/20 08:23:36;;;;;;;14.48;6.28;;;20.70;56.10;;;;;;4976791;28;88093;-83
2023/01/20 08:26:04;;;;;;;10.65;6.40;;;20.60;60.40;;;;;;4977868;28;87433;-83
2023/01/20 08:28:33;;;;;;;10.18;6.07;;;20.60;65.80;;;;;;4978080;28;96765;-84
2023/01/20 08:31:09;;;;;;;13.68;6.72;;;20.60;66.20;;;;;;4978519;28;88112;-85
2023/01/20 08:33:36;;;;;;;11.27;6.93;;;20.60;67.00;;;;;;4986108;28;87452;-85
2023/01/20 08:36:16;;;;;;;14.60;6.90;;;20.50;67.00;;;;;;4995552;28;87221;-82
2023/01/20 08:38:42;;;;;;;12.65;6.50;;;20.50;68.60;;;;;;4994817;28;88559;-85
2023/01/20 08:41:11;;;;;;;10.02;5.93;;;20.40;67.30;;;;;;4988217;28;87139;-84
2023/01/20 08:43:37;;;;;;;10.10;5.85;;;20.40;65.10;;;;;;4984234;28;86944;-84
2023/01/20 08:46:08;;;;;;;10.98;5.60;;;20.40;63.30;;;;;;4987771;28;86919;-86
2023/01/20 08:48:35;;;;;;;10.52;5.72;;;20.50;62.80;;;;;;4991077;28;88966;-86
2023/01/20 08:51:07;;;;;;;10.60;5.90;;;20.40;62.70;;;;;;4992766;28;88459;-85
2023/01/20 08:53:35;;;;;;;8.73;5.78;;;20.40;62.90;;;;;;4986602;28;87082;-85
2023/01/20 08:56:02;;;;;;;11.73;6.88;;;20.50;62.30;;;;;;4987704;28;87255;-84
2023/01/20 08:58:28;;;;;;;8.43;5.68;;;20.40;61.30;;;;;;4985906;28;87373;-85
2023/01/20 09:00:57;;;;;;;9.68;5.30;;;20.50;61.00;;;;;;4981458;28;87790;-85
2023/01/20 09:03:23;;;;;;;17.63;7.00;;;20.40;61.90;;;;;;4980815;28;86857;-85
2023/01/20 09:05:49;;;;;;;10.23;5.88;;;20.50;61.10;;;;;;4983770;28;86336;-86
2023/01/20 09:08:16;;;;;;;11.30;6.05;;;20.50;61.20;;;;;;4984647;28;88555;-84
2023/01/20 09:10:42;;;;;;;17.85;6.78;;;20.50;60.00;;;;;;4985228;28;88084;-85
2023/01/20 09:13:07;;;;;;;11.80;5.35;;;20.40;60.10;;;;;;4988210;28;88326;-84
2023/01/20 09:15:33;;;;;;;9.90;5.90;;;20.40;60.20;;;;;;4989456;28;88219;-85
2023/01/20 09:17:59;;;;;;;13.20;6.53;;;20.40;60.30;;;;;;4990948;28;86927;-85
2023/01/20 09:20:26;;;;;;;16.67;6.82;;;20.30;60.30;;;;;;4990330;28;87620;-83
2023/01/20 09:22:53;;;;;;;13.00;6.00;;;20.20;60.20;;;;;;4982567;28;87024;-84
2023/01/20 09:25:22;;;;;;;11.55;5.78;;;20.20;60.20;;;;;;4984579;28;87349;-84
2023/01/20 09:27:47;;;;;;;9.80;5.60;;;20.30;60.50;;;;;;4988212;28;87373;-84
2023/01/20 09:30:13;;;;;;;15.35;6.40;;;20.30;60.20;;;;;;4980094;28;87901;-84
2023/01/20 09:32:38;;;;;;;11.70;5.95;;;20.40;59.90;;;;;;4994679;28;87287;-84
2023/01/20 09:35:07;;;;;;;13.40;6.00;;;20.40;59.90;;;;;;4993233;28;87023;-84
2023/01/20 09:53:01;;;;;;;11.60;5.45;;;20.10;59.70;;;;;;4981271;28;91449;-83
2023/01/20 09:55:41;;;;;;;12.98;5.32;;;20.10;59.80;;;;;;4981513;28;86988;-84
2023/01/20 09:58:30;;;;;;;9.63;5.00;;;20.20;59.60;;;;;;4987103;28;86646;-83
2023/01/20 10:01:12;;;;;;;15.03;5.50;;;20.30;59.60;;;;;;4926028;28;87955;-83
2023/01/20 10:03:46;;;;;;;10.30;5.70;;;20.20;59.40;;;;;;4921469;28;88550;-83
2023/01/20 10:06:18;;;;;;;10.68;4.70;;;20.20;59.20;;;;;;4922187;28;88170;-84
2023/01/20 10:08:50;;;;;;;10.00;5.00;;;20.20;59.30;;;;;;4924738;28;87659;-84
2023/01/20 10:11:19;;;;;;;8.27;5.15;;;20.20;59.20;;;;;;4922086;28;88689;-84
2023/01/20 10:14:24;;;;;;;9.30;4.40;;;20.20;59.10;;;;;;4921905;28;87653;-84
2023/01/20 10:17:11;;;;;;;11.13;5.38;;;20.20;59.00;;;;;;4928768;28;87054;-84
2023/01/20 10:19:42;;;;;;;9.23;5.10;;;20.20;59.00;;;;;;4927038;28;91599;-84
2023/01/20 10:22:14;;;;;;;9.15;4.55;;;20.20;59.00;;;;;;4923952;28;87727;-84
2023/01/20 10:24:51;;;;;;;6.50;4.70;;;20.10;58.90;;;;;;4921260;28;88390;-83
2023/01/20 10:27:18;;;;;;;9.93;4.68;;;20.20;58.80;;;;;;4924423;28;87068;-83
2023/01/20 10:29:49;;;;;;;9.15;4.80;;;20.20;58.80;;;;;;4924375;28;87004;-83
2023/01/20 10:32:35;;;;;;;6.32;4.13;;;20.20;58.80;;;;;;4928935;28;89537;-83
2023/01/20 10:35:23;;;;;;;9.07;4.75;;;20.20;58.80;;;;;;4925474;28;87471;-82
2023/01/20 10:37:50;;;;;;;8.63;4.40;;;20.20;58.70;;;;;;4952469;28;86868;-83
2023/01/20 10:40:43;;;;;;;11.63;4.78;;;20.20;58.70;;;;;;4987098;28;86947;-83
2023/01/20 10:43:16;;;;;;;8.55;4.72;;;20.20;58.60;;;;;;4981445;28;88671;-85
2023/01/20 10:46:15;;;;;;;13.07;5.15;;;20.30;58.30;;;;;;4991201;28;88260;-85
2023/01/20 10:49:08;;;;;;;6.70;4.15;;;20.30;58.00;;;;;;4968224;28;87522;-85
2023/01/20 10:51:44;;;;;;;7.88;4.28;;;20.30;58.00;;;;;;4989788;28;86846;-85
2023/01/20 10:54:16;;;;;;;10.07;4.50;;;20.20;58.10;;;;;;4985805;28;89777;-84
2023/01/20 10:56:44;;;;;;;8.73;4.55;;;20.30;58.30;;;;;;4986184;28;88325;-84
2023/01/20 10:59:16;;;;;;;9.30;4.68;;;20.30;58.20;;;;;;4987149;28;88285;-85
2023/01/20 11:01:47;;;;;;;12.15;4.70;;;20.30;58.20;;;;;;4984846;28;86979;-84
2023/01/20 11:04:19;;;;;;;9.50;4.50;;;20.30;58.10;;;;;;4987262;28;87726;-85
2023/01/20 11:06:53;;;;;;;7.60;4.43;;;20.20;58.10;;;;;;4992284;28;88850;-84
2023/01/20 11:09:33;;;;;;;9.43;5.38;;;20.20;58.10;;;;;;4986293;28;87172;-84
2023/01/20 11:12:02;;;;;;;8.80;4.55;;;20.30;58.30;;;;;;4976161;28;87407;-84
2023/01/20 11:14:28;;;;;;;9.93;4.68;;;20.30;58.30;;;;;;4976301;28;88179;-85
2023/01/20 11:17:00;;;;;;;10.13;4.68;;;20.30;58.30;;;;;;4982548;28;88143;-84
2023/01/20 11:19:27;;;;;;;18.33;4.40;;;20.40;58.00;;;;;;4988573;28;87367;-83
2023/01/20 11:21:52;;;;;;;12.85;4.65;;;20.30;58.10;;;;;;4986162;28;87437;-84
2023/01/20 11:24:24;;;;;;;9.70;4.32;;;20.30;58.20;;;;;;4985903;28;89086;-84
2023/01/20 11:26:50;;;;;;;8.93;4.75;;;20.20;58.20;;;;;;4990400;28;89316;-84
2023/01/20 11:29:15;;;;;;;9.45;4.88;;;20.20;58.30;;;;;;4986976;28;87181;-84
2023/01/20 11:31:45;;;;;;;10.40;4.50;;;20.20;58.40;;;;;;4985352;28;88820;-85
2023/01/20 11:34:16;;;;;;;;;;;20.30;58.50;;;;;;4986521;28;89342;-84
2023/01/20 11:36:42;;;;;;;9.68;4.60;;;20.30;58.40;;;;;;4982781;28;89313;-84
2023/01/20 11:39:27;;;;;;;8.40;4.72;;;20.30;58.30;;;;;;4988313;28;86942;-84
2023/01/20 11:42:15;;;;;;;9.73;4.15;;;20.30;58.40;;;;;;4987867;28;86817;-84
2023/01/20 11:45:01;;;;;;;8.23;4.50;;;20.30;58.30;;;;;;4976443;28;88621;-84
2023/01/20 11:47:31;;;;;;;6.85;3.83;;;20.20;58.30;;;;;;4973942;28;89327;-84
2023/01/20 11:50:05;;;;;;;6.20;3.70;;;20.20;58.30;;;;;;4973934;28;88101;-85
2023/01/20 11:52:33;;;;;;;7.72;4.68;;;20.30;58.10;;;;;;4969248;28;88150;-86
2023/01/20 11:55:19;;;;;;;8.88;4.95;;;20.30;57.90;;;;;;4977138;28;87705;-84
2023/01/20 11:57:47;;;;;;;10.55;6.13;;;20.30;55.50;;;;;;4973354;28;88170;-85
2023/01/20 12:00:24;;;;;;;10.27;5.32;;;20.20;53.70;;;;;;4971625;28;87460;-83
2023/01/20 12:03:10;;;;;;;7.72;4.90;;;20.20;54.40;;;;;;4978503;28;87410;-85
2023/01/20 12:06:27;;;;;;;10.30;5.18;;;20.20;55.20;;;;;;4971845;28;88522;-85
2023/01/20 12:09:02;;;;;;;8.95;4.97;;;20.20;55.90;;;;;;4898089;28;87210;-85
2023/01/20 12:11:32;;;;;;;11.38;4.95;;;20.40;55.50;;;;;;4899680;28;87572;-84
2023/01/20 12:14:33;;;;;;;8.80;4.15;;;20.40;55.70;;;;;;4900451;28;87230;-84
2023/01/20 12:17:28;;;;;;;11.15;4.78;;;20.40;55.80;;;;;;4896171;28;93855;-84
2023/01/20 12:20:05;;;;;;;7.53;4.70;;;20.40;55.70;;;;;;4901628;28;93533;-86
2023/01/20 12:22:43;;;;;;;8.00;4.40;;;20.40;54.60;;;;;;4901232;28;86923;-86
2023/01/20 12:25:24;;;;;;;11.02;4.95;;;20.40;54.70;;;;;;4914487;28;87041;-85
2023/01/20 12:28:09;;;;;;;7.97;4.68;;;20.40;55.30;;;;;;4911961;28;89670;-85
2023/01/20 12:30:53;;;;;;;6.28;4.15;;;20.40;55.30;;;;;;4919892;28;88347;-85
2023/01/20 12:33:25;;;;;;;10.38;4.57;;;20.40;55.60;;;;;;4915739;28;87445;-85
2023/01/20 12:36:19;;;;;;;8.13;4.20;;;20.30;55.70;;;;;;4918786;28;86796;-84
2023/01/20 12:39:15;;;;;;;6.75;4.00;;;20.30;55.80;;;;;;4917539;28;88643;-84
2023/01/20 12:42:08;;;;;;;10.32;4.28;;;20.30;55.60;;;;;;4914018;28;88993;-82
2023/01/20 12:44:52;;;;;;;7.43;3.47;;;20.40;55.40;;;;;;4984260;28;88130;-82
2023/01/20 12:47:23;;;;;;;7.78;3.55;;;20.40;55.70;;;;;;4985965;28;87199;-82
2023/01/20 12:50:10;;;;;;;8.65;4.60;;;20.30;55.80;;;;;;4990614;28;87731;-82
2023/01/20 12:53:05;;;;;;;13.45;4.05;;;20.30;55.90;;;;;;4984855;28;92444;-82
2023/01/20 12:55:43;;;;;;;7.30;3.88;;;20.30;55.40;;;;;;4988736;28;87373;-82
2023/01/20 12:58:30;;;;;;;18.33;4.82;;;20.30;53.80;;;;;;4987104;28;87498;-82
2023/01/20 13:00:59;;;;;;;11.80;4.43;;;20.20;53.40;;;;;;4987226;28;88536;-82
2023/01/20 13:03:49;;;;;;;12.07;5.10;;;20.20;54.60;;;;;;4986837;28;88344;-82
2023/01/20 13:06:35;;;;;;;8.77;4.85;;;20.10;55.60;;;;;;4987458;28;86983;-83
2023/01/20 13:09:35;;;;;;;10.93;5.05;;;20.10;55.80;;;;;;4992214;28;86947;-83
2023/01/20 13:12:09;;;;;;;8.13;3.72;;;20.20;53.40;;;;;;4992178;28;92591;-82
2023/01/20 13:14:39;;;;;;;6.55;3.95;;;20.10;50.30;;;;;;4978365;28;88708;-83
2023/01/20 13:17:37;;;;;;;6.82;3.45;;;20.10;50.40;;;;;;4985072;28;87091;-82
2023/01/20 13:20:04;;;;;;;6.68;3.78;;;20.10;49.70;;;;;;4989219;28;91819;-83
2023/01/20 13:22:33;;;;;;;9.90;3.58;;;20.00;49.60;;;;;;4987123;28;88544;-82
2023/01/20 13:25:03;;;;;;;12.10;3.88;;;20.00;51.40;;;;;;4988915;28;87041;-83
2023/01/20 13:27:34;;;;;;;10.13;4.00;;;20.00;52.70;;;;;;4987896;28;86937;-83
2023/01/20 13:30:03;;;;;;;6.32;4.05;;;20.10;55.00;;;;;;4980965;28;87111;-83
2023/01/20 13:32:36;;;;;;;9.48;4.43;;;20.10;55.30;;;;;;4991676;28;87967;-83